Team logos
Guidelines for entries Team Leaderboard Add or Update a Person FAQ
Jan 2019 - TOKYROW 2020
This challenge was chosen by Tokyrow


Row 20 minutes
Restricted at 20 SPM
(averaged stroke rate)

Enter your distance completed in 20 minutes.


The February CTC will be chosen by Fitness Matters

See C2 forum thread for details.

Most Recent EntriesAdd/Update an Entry
DateNameCatTeamResult
2019-01-18Kieran CahillMLWTMAD 5331
2019-01-18Jamie SandersMHWTCornish Gig Rowers IRC 5569
2019-01-18bensid71MHWTFIRT 5102
2019-01-18Annette WammenFLWTRowPro Rowers 4375
2019-01-18GeorgeBinghamRLRMHWTRed Line Rowers 4961
Bold = new time; italic = updated time
Name:
Password:
Entry: metres
 
Current Leaderboard
Names in blue italics have added or updated their times within the past 24 hours.
#NameCatTeamResultPacePower
1Chandler SMSub 7 I 5947   1:40.9  340.8 
2Justin FarinaMGARAGEATHLETE I 5903   1:41.6  333.3 
3Stephen NewberryMGARAGEATHLETE I 5882   1:42.0  329.8 
4ESPRIT - Oli GrayMESPRIT I 5880   1:42.0  329.4 
5Graham BentonMMAD I 5871   1:42.2  327.9 
6Andy BenkoMPaddy Power I 5857   1:42.4  325.6 
7Olli ZeidlerMMAD I 5853   1:42.5  324.9 
8James SaxtonMTeam Oarsome I 5850   1:42.6  324.4 
9ESPRIT Jarek OlszowkaMESPRIT I 5836   1:42.8  322.1 
10Adam Harriman FMMFitness Matters I 5833   1:42.9  321.6 
11Green_GAMGARAGEATHLETE I 5831   1:42.9  321.3 
12Ivan SaricMBW Rowing I 5827   1:43.0  320.6 
13ESPRIT Derek PetersonMESPRIT I 5816   1:43.2  318.8 
14ESPRIT Dan GorenkinMESPRIT II 5775   1:43.9  312.1 
15Tim MalemMAD I 5762   1:44.1  310.0 
16Thomas D JackmanMTeam Oarsome I 5757   1:44.2  309.2 
17Moritz BOCKMBW Rowing I 5753   1:44.3  308.5 
18ESPRIT Nick BlountMESPRIT II 5746   1:44.4  307.4 
19ESPRIT Andy TomlinsonMESPRIT II 5744   1:44.5  307.1 
20ErtanMMAD I 5742   1:44.5  306.8 
21PR_SAVMTeam Oarsome I 5742   1:44.5  306.8 
22Tobias Stohr FMMFitness Matters I 5733   1:44.7  305.3 
23AAPaul BuchananMPaddy Power I 5732   1:44.7  305.2 
24Stewart WyllieMRowPro Rowers I 5725   1:44.8  304.0 
25Matt Zalewski GAMGARAGEATHLETE II 5723   1:44.8  303.7 
26Sam ChineryMMAD II 5723   1:44.8  303.7 
27Simon JonesMMAD II 5709   1:45.1  301.5 
28j.dMMAD II 5697   1:45.3  299.6 
29Damien MartinMRowPro Rowers I 5686   1:45.5  297.9 
30Andrew pristonMFitness Matters I 5677   1:45.7  296.5 
31Allan RidlerMFitness Matters II 5660   1:46.0  293.8 
32Max SchrammMBW Rowing I 5654   1:46.1  292.9 
33Mark MitchellmMAD II 5644   1:46.3  291.3 
34Matthias BorghorstMBW Rowing II 5639   1:46.4  290.5 
35Keith DarbymRed Line Rowers I 5636   1:46.5  290.1 
36Sam BlytheMFitness Matters II 5632   1:46.5  289.5 
37Marius TSMSub 7 I 5630   1:46.6  289.2 
38SeanS GAMGARAGEATHLETE II 5620   1:46.8  287.6 
39Warren MatthewsMSub 7 I 5617   1:46.8  287.2 
40Ian WildeMSub 7 II 5616   1:46.8  287.0 
41Clemens BMBW Rowing II 5605   1:47.0  285.3 
42Mat Ward S7MSub 7 II 5603   1:47.1  285.0 
43ESPRIT David RackstrawMESPRIT III 5600   1:47.1  284.6 
44Jamie SandersMCornish Gig Rowers IRC I 5569   1:47.7  279.9 
45Roy JonesMMAD III 5568   1:47.8  279.7 
46Stewart MossMSub 7 II 5557   1:48.0  278.1 
47Andrew KingMCornish Gig Rowers IRC I 5557   1:48.0  278.1 
48BlanksbyFMMFitness Matters II 5554   1:48.0  277.6 
49Tim Garratt FMMFitness Matters III 5543   1:48.2  276.0 
50Edward CarpenterMTeam Oarsome II 5541   1:48.3  275.7 
51Alex DoidgeMSub 7 III 5534   1:48.4  274.6 
52ESPRIT Stuart ElvinMESPRIT III 5533   1:48.4  274.5 
53ESPRIT Louis KirchellMESPRIT III 5524   1:48.6  273.1 
54Simon Amery FMmFitness Matters I 5520   1:48.7  272.5 
55Harry WilkesMSub 7 III 5515   1:48.8  271.8 
56Jack MontgomeryMFitness Matters III 5514   1:48.8  271.7 
57Andy Reid Sub 7MSub 7 III 5514   1:48.8  271.7 
58macrothMForum Flyers I 5511   1:48.9  271.2 
59Moritz MarchartmMAD III 5510   1:48.9  271.1 
60Mark Rozewicz GAMGARAGEATHLETE II 5499   1:49.1  269.4 
61Kevin DohertyMGARAGEATHLETE III 5494   1:49.2  268.7 
62Dean HarrisMTRAIN Manchester I 5490   1:49.3  268.1 
63Felix PfeifferMBW Rowing II 5470   1:49.7  265.2 
64Victor PadeeMSub 7 IV 5465   1:49.8  264.5 
65Matty WestMSub 7 IV 5464   1:49.8  264.3 
66Valentin SchätzleinmBW Rowing I 5463   1:49.8  264.2 
67js.klsmFIRT I 5463   1:49.8  264.2 
68Casey ClarkeMSub 7 IV 5462   1:49.8  264.0 
69Peter ClowesMTeam Oarsome II 5458   1:49.9  263.5 
70Yannick HeratmGARAGEATHLETE I 5457   1:50.0  263.3 
71Michael AndersonMRed Line Rowers I 5457   1:50.0  263.3 
72Jon MelsonMDLC Gidea Park I 5455   1:50.0  263.0 
73ESPRIT Julian WarrickMESPRIT IV 5452   1:50.1  262.6 
74Amadee PelgrimMRowPro Rowers I 5451   1:50.1  262.4 
75Pete MarstonMMAD III 5449   1:50.1  262.2 
76Alan AgnewMRed Line Rowers I 5443   1:50.2  261.3 
77Andrew Van WykMGARAGEATHLETE III 5430   1:50.5  259.4 
78ESPRIT Noel StoddartmESPRIT I 5418   1:50.7  257.7 
79Barry Carew FMMFitness Matters III 5408   1:50.9  256.3 
80Philip HardyMRed Line Rowers I 5408   1:50.9  256.3 
81James stapletonMIndependent I 5405   1:51.0  255.9 
82Richard CheesemanMSub 7 V 5405   1:51.0  255.9 
83ESPRIT PT TummonMESPRIT IV 5401   1:51.1  255.3 
84GrahamPMMAD III 5395   1:51.2  254.4 
85Nicolas Di Giugno GAmGARAGEATHLETE II 5393   1:51.3  254.2 
86ESPRIT Matt FosterMESPRIT IV 5388   1:51.4  253.5 
87Matthew Parkinson S7MSub 7 V 5384   1:51.4  252.9 
88Mark GriffinMIsenhurst Rowers I 5379   1:51.5  252.2 
89Matt GillMSub 7 V 5373   1:51.7  251.3 
90Stefan HubnerMErgo Ergo Sum I 5373   1:51.7  251.3 
91Paul PeppardMSub 7 VI 5366   1:51.8  250.4 
92ESPRIT Jon HardwickMESPRIT V 5365   1:51.8  250.2 
93Paul NuttallMFitness Matters IV 5361   1:51.9  249.7 
94Rick DuffieldMSub 7 VI 5360   1:51.9  249.5 
95Kevin James FMMFitness Matters IV 5357   1:52.0  249.1 
96Nick ThomasMErgo Ergo Sum I 5355   1:52.0  248.8 
97Henning SchnellMSub 7 VI 5353   1:52.1  248.5 
98Keith KeaveneyMIsenhurst Rowers I 5348   1:52.2  247.8 
99Bergur JensenmSub 7 I 5348   1:52.2  247.8 
100Gregory CookmTeam Oarsome I 5348   1:52.2  247.8 
101Joni DiackMSub 7 VII 5346   1:52.2  247.6 
102MartinB FFMForum Flyers I 5344   1:52.3  247.3 
103Steve IsaacsonmSub 7 II 5342   1:52.3  247.0 
104Patrick LouazelmSub 7 III 5340   1:52.4  246.7 
105Ryan lecrawMFitness Matters IV 5334   1:52.5  245.9 
106Brian O Dubhchoin FMMFitness Matters V 5332   1:52.5  245.6 
107Kieran CahillmMAD IV 5331   1:52.5  245.5 
108ESPRIT Craig MumbymESPRIT II 5329   1:52.6  245.2 
109Bezza RLRmRed Line Rowers II 5328   1:52.6  245.1 
110ESPRIT Alex FrazaoMESPRIT V 5326   1:52.7  244.8 
111Tako LootsmaMFree Spirits I 5325   1:52.7  244.7 
112Henry Smith GAMGARAGEATHLETE III 5325   1:52.7  244.7 
113Adam EshbornmSub 7 IV 5324   1:52.7  244.5 
114John Pritchard FMMFitness Matters V 5317   1:52.8  243.6 
115Andy BurrowsMTeam Oarsome II 5314   1:52.9  243.2 
116aurelienusvMFIRT I 5311   1:53.0  242.7 
117Rowland Hills (RLR)MRed Line Rowers II 5308   1:53.0  242.3 
118Chris LeonardmFitness Matters II 5307   1:53.1  242.2 
119Justin Mcelwain GAMGARAGEATHLETE IV 5305   1:53.1  241.9 
120Chris Bell S7MSub 7 VII 5304   1:53.1  241.8 
121George SMBW Rowing III 5299   1:53.2  241.1 
122hjsMForum Flyers I 5299   1:53.2  241.1 
123Felton HumbleMFree Spirits I 5295   1:53.3  240.6 
124Janos Suto S7MSub 7 VII 5290   1:53.4  239.9 
125Ade Peel (TO)MTeam Oarsome III 5290   1:53.4  239.9 
126Leif HagenmRed Line Rowers II 5280   1:53.6  238.5 
127Bartosz D-ski FMMFitness Matters V 5275   1:53.7  237.8 
128Marc Charman FMmFitness Matters III 5274   1:53.8  237.7 
129Steven RichieMSub 7 VIII 5270   1:53.9  237.2 
130Glynn PowellMSub 7 VIII 5266   1:53.9  236.6 
131Martin FFMForum Flyers II 5265   1:54.0  236.5 
132Craig douglassMSub 7 VIII 5263   1:54.0  236.2 
133Matt RawlinsonMSub 7 IX 5261   1:54.0  235.9 
134Robert JonesMSub 7 IX 5257   1:54.1  235.4 
135Mike Pearce (MPx)MSub 7 IX 5256   1:54.2  235.3 
136LAWalkerFBW Rowing I 5254   1:54.2  235.0 
137Russell ChewieMSub 7 X 5249   1:54.3  234.3 
138AshMTeam Oarsome III 5244   1:54.4  233.7 
139Dingeman WiertzmErgo Ergo Sum I 5244   1:54.4  233.7 
140Andy ParkesMGee Crew I 5241   1:54.5  233.3 
141Huw Beaty FMMFitness Matters VI 5240   1:54.5  233.1 
142Ed ComptonMSub 7 X 5240   1:54.5  233.1 
143ESPRIT Matt LukeMESPRIT V 5240   1:54.5  233.1 
144Dan LynchmSub 7 V 5239   1:54.5  233.0 
145ESPRIT Al NisbetMESPRIT VI 5230   1:54.7  231.8 
146James ClarkeMFitness Matters VI 5229   1:54.7  231.7 
147Paul SandsMRed Line Rowers II 5228   1:54.8  231.5 
148ESPRIT Dale PickeringMESPRIT VI 5223   1:54.9  230.9 
149ClaudiusmFree Spirits I 5223   1:54.9  230.9 
150LoopingmFIRT I 5212   1:55.1  229.4 
151Matthew Godwin FMMFitness Matters VI 5206   1:55.3  228.6 
152Roger RogneMFitness Matters VII 5206   1:55.3  228.6 
153Dave Barber INDMIndependent I 5195   1:55.5  227.2 
154patrice CORNUTmFIRT I 5188   1:55.7  226.3 
155Dave ChmilowskyjMTeam Oarsome III 5187   1:55.7  226.1 
156Gary LewisMSub 7 X 5171   1:56.0  224.0 
157Nigel FarmerMForum Flyers II 5169   1:56.1  223.8 
158PongiMFitness Matters VII 5161   1:56.3  222.7 
159Kay BieriMC2TweetCrew I 5159   1:56.3  222.5 
160Rod.ChinnmSub 7 VI 5153   1:56.4  221.7 
161Glyn LloydmSub 7 VII 5153   1:56.4  221.7 
162ESPRIT Katy TalbotFESPRIT I 5151   1:56.5  221.5 
163Anthony BarbierMSub 7 XI 5147   1:56.6  220.9 
164Paul Bryson (TS)M Once We Were Tribesports I 5140   1:56.7  220.0 
165LindsayhMForum Flyers II 5138   1:56.8  219.8 
166Roger Johansen FMMFitness Matters VII 5137   1:56.8  219.7 
167Spencer Priestley FMMFitness Matters VIII 5137   1:56.8  219.7 
168Steve SmithMFree Spirits I 5135   1:56.8  219.4 
169M D MItchellMErg365 I 5131   1:56.9  218.9 
170Blanksby skiMSki Erg I 5130   1:57.0  218.8 
171gregsmith01748MFree Spirits II 5129   1:57.0  218.6 
172Larry TaitMTeam Oarsome IV 5121   1:57.2  217.6 
173Ian BeemFree Spirits II 5117   1:57.3  217.1 
174Anton Richter-VissermRed Line Rowers III 5116   1:57.3  217.0 
175Andy ColeMGee Crew I 5115   1:57.3  216.8 
176Hal Appleyard01MSub 7 XI 5114   1:57.3  216.7 
177David LewisMSub 7 XI 5113   1:57.3  216.6 
178Jorn FarmenMRed Line Rowers III 5112   1:57.4  216.5 
179Anna MuehleFSub 7 I 5111   1:57.4  216.3 
180Stephen Perkins FMMFitness Matters VIII 5106   1:57.5  215.7 
181FSR Ralf AchenbachMFree Spirits II 5106   1:57.5  215.7 
182Ivan VukovicMForum Flyers III 5104   1:57.6  215.4 
183Dave GillibrandMSub 7 XII 5102   1:57.6  215.2 
184bensid71MFIRT II 5102   1:57.6  215.2 
185Geoff BoucherMSub 7 XII 5100   1:57.6  214.9 
186Casey Clarke SkiErgMSki Erg I 5092   1:57.8  213.9 
187Matt ElymIsenhurst Rowers I 5091   1:57.9  213.8 
188Andrew PhilipmFitness Matters IV 5083   1:58.0  212.8 
189ESPRIT Rochelle QuigleyFESPRIT II 5082   1:58.1  212.7 
190FerdlMPaddy Power I 5079   1:58.1  212.3 
191Floret. JMFIRT II 5079   1:58.1  212.3 
192js.klskimSki Erg I 5078   1:58.2  212.2 
193fkoeneMFree Spirits II 5077   1:58.2  212.0 
194Jean-Pierre GORINmFIRT II 5076   1:58.2  211.9 
195Derek bolandmSub 7 VIII 5074   1:58.2  211.7 
196FlorianOMFitness Matters VIII 5072   1:58.3  211.4 
197Kevin HillmanMEmpty the Tanks I 5070   1:58.3  211.2 
198Ray Lowrie FMMFitness Matters IX 5067   1:58.4  210.8 
199StJohn FordM Once We Were Tribesports I 5061   1:58.6  210.1 
200Justine RestonfMAD I 5059   1:58.6  209.8 
201Allan HallbergMForum Flyers III 5055   1:58.7  209.3 
202Paul_TimmonsmPaddy Power I 5053   1:58.7  209.1 
203Alfred OkellomSub 7 IX 5051   1:58.8  208.8 
204LIAM PDB WALSHmTRAIN Manchester I 5051   1:58.8  208.8 
205Andy PatienceMSub 7 XII 5050   1:58.8  208.7 
206Tim ReidMFitness Matters IX 5049   1:58.8  208.6 
207Philip RoeselmTeam Oarsome II 5046   1:58.9  208.2 
208Paul JohnsonmFree Spirits III 5046   1:58.9  208.2 
209Ray LenMSub 7 XIII 5041   1:59.0  207.6 
210Ian BarnesMIndependent I 5041   1:59.0  207.6 
211Charlotte PiggFMAD II 5039   1:59.1  207.3 
212Marcus Schug FMMFitness Matters IX 5039   1:59.1  207.3 
213Tony McKenna.mFitness Matters V 5036   1:59.1  207.0 
214Paul White (RLR)mRed Line Rowers III 5034   1:59.2  206.7 
215Mike ShillabeerMIsenhurst Rowers I 5033   1:59.2  206.6 
216Amie MacejkovicFGARAGEATHLETE I 5032   1:59.2  206.5 
217Sion Evans FMMFitness Matters X 5028   1:59.3  206.0 
218Karl DieterMSub 7 XIII 5027   1:59.4  205.8 
219Graham HutchingsMRed Line Rowers III 5027   1:59.4  205.8 
220ESPRIT Eddie EdwardsMESPRIT VI 5026   1:59.4  205.7 
221LiefcatMFree Spirits III 5026   1:59.4  205.7 
222Will HaskellmForum Flyers I 5026   1:59.4  205.7 
223Adam SeymourMDLC Gidea Park I 5024   1:59.4  205.5 
224davidmarksMPaddy Power II 5018   1:59.6  204.7 
225ESPRIT Bill SchmidtmESPRIT III 5018   1:59.6  204.7 
226Frank NoorlanderMForum Flyers III 5016   1:59.6  204.5 
227Will BlanfordMIsenhurst Rowers II 5014   1:59.7  204.3 
228Dominic GriersonMSub 7 XIII 5014   1:59.7  204.3 
229Gabriele Tarsia IncuriaMBW Rowing III 5005   1:59.9  203.2 
230MaxMacLaren1MFree Spirits III 5004   1:59.9  203.0 
231Mike AshtonMRed Line Rowers IV 5003   1:59.9  202.9 
232Richard MilnermRed Line Rowers IV 5002   2:00.0  202.8 
233jacketMForum Flyers IV 5001   2:00.0  202.7 
234ESPRIT Kerry SharplesFESPRIT III 4996   2:00.1  202.1 
235Ian NorthcottMSub 7 XIV 4989   2:00.3  201.2 
236Bjarne_DKMAIRC I 4988   2:00.3  201.1 
237Gary SmithmIsenhurst Rowers II 4980   2:00.5  200.1 
238Nolan Thomas MessermSub 7 X 4980   2:00.5  200.1 
239Ellie PeebsFMAD III 4975   2:00.6  199.5 
240Mark DickinsonMFitness Matters X 4966   2:00.8  198.4 
241Roger TiveyMIsenhurst Rowers II 4962   2:00.9  198.0 
242GeorgeBinghamRLRMRed Line Rowers IV 4961   2:00.9  197.8 
243OranjmIndependent I 4960   2:01.0  197.7 
244andrewcrystalMForum Flyers IV 4949   2:01.2  196.4 
245Kia TaylorFGARAGEATHLETE II 4943   2:01.4  195.7 
246Robert DykemIndependent II 4943   2:01.4  195.7 
247Tracy Watkins RLRFRed Line Rowers I 4940   2:01.5  195.3 
248James Thornton SkiErgMSki Erg I 4936   2:01.6  194.9 
249Richard CameronMSub 7 XIV 4936   2:01.6  194.9 
250Davidski BarberskiMSki Erg II 4925   2:01.8  193.6 
251Shelagh tubbyFRed Line Rowers II 4923   2:01.9  193.3 
252macrothskiMSki Erg II 4923   2:01.9  193.3 
253David SpeedMTeam Oarsome IV 4920   2:02.0  193.0 
254Jon P TaylormFree Spirits III 4918   2:02.0  192.7 
255Nigel BrocktonmSub 7 XI 4915   2:02.1  192.4 
256Chewie Russell SkiErgMSki Erg II 4911   2:02.2  191.9 
257Janette LoweFTeam Oarsome I 4910   2:02.2  191.8 
258Harry HellammFitness Matters VI 4910   2:02.2  191.8 
259lee robinsonMErg365 I 4909   2:02.2  191.7 
260Richard SteventonMSub 7 XIV 4905   2:02.3  191.2 
261FM Bob SummonsMFitness Matters X 4902   2:02.4  190.9 
262Marcus SherwoodMIndependent II 4902   2:02.4  190.9 
263Sammie StuartFSub 7 II 4900   2:02.4  190.6 
264Steve OckerbyMForum Flyers IV 4898   2:02.5  190.4 
265ESPRIT Rachel HarrisFESPRIT IV 4896   2:02.5  190.2 
266Craig HudsonMIndependent II 4890   2:02.7  189.5 
267Jon GoodallMMAD IV 4888   2:02.7  189.2 
268Mike PfirrmanMSub 7 XV 4887   2:02.8  189.1 
269AndersP_SweMAIRC I 4884   2:02.9  188.8 
270david FROC -AIPmFIRT II 4882   2:02.9  188.5 
271Jonathan Turns ETTMEmpty the Tanks I 4880   2:03.0  188.3 
272Bill WakeleymRowPro Rowers I 4879   2:03.0  188.2 
273Kamile MatFErgo Ergo Sum I 4879   2:03.0  188.2 
274Eddie McSharryMSub 7 XV 4875   2:03.1  187.7 
275Matt NewmanmTeam Oarsome III 4873   2:03.1  187.5 
276ESPRIT Paul ButterworthMESPRIT VII 4867   2:03.3  186.8 
277Mike BrownjohnmDLC Gidea Park I 4859   2:03.5  185.9 
278Harry_ScoMAIRC I 4851   2:03.7  185.0 
279ESPRIT Charlotte RooneyFESPRIT V 4847   2:03.8  184.5 
280P McNeilMDLC Gidea Park I 4840   2:04.0  183.7 
281Terry FFmForum Flyers II 4835   2:04.1  183.1 
282Val CraftFRed Line Rowers III 4829   2:04.2  182.5 
283David PlumbmFree Spirits IV 4827   2:04.3  182.2 
284James LoweMFitness Matters XI 4827   2:04.3  182.2 
285Joe A KeatingmPaddy Power II 4827   2:04.3  182.2 
286Steve SelwoodMTaff Attack I 4821   2:04.5  181.6 
287Peter JonesMGee Crew I 4820   2:04.5  181.4 
288Robin LancefieldMFitness Matters XI 4816   2:04.6  181.0 
289Sarita Kristina HansenfSub 7 III 4816   2:04.6  181.0 
290Cemlyn JonesMFitness Matters XI 4811   2:04.7  180.4 
291steeve DANDREYMFIRT III 4811   2:04.7  180.4 
292Malin FaraasenFFitness Matters I 4806   2:04.8  179.9 
293ESPRIT Sarah GibbsfESPRIT IV 4798   2:05.1  179.0 
294Lesley Wright GAFGARAGEATHLETE III 4794   2:05.2  178.5 
295herve pruneaumFIRT III 4791   2:05.2  178.2 
296Andy Barwell FMMFitness Matters XII 4782   2:05.5  177.2 
297James DavismSub 7 XII 4780   2:05.5  177.0 
298meurice robinson RLRmRed Line Rowers IV 4768   2:05.8  175.6 
299Eric JonesMSub 7 XV 4766   2:05.9  175.4 
300Sylverado987MFIRT III 4764   2:05.9  175.2 
301RLR_Andrew_JonesMRed Line Rowers V 4760   2:06.1  174.8 
302ESPRIT Jim AaronMESPRIT VII 4757   2:06.1  174.4 
303Dawn ZalasFTeam Oarsome II 4749   2:06.3  173.5 
304Arkadiusz KieliszekmSub 7 XIII 4743   2:06.5  172.9 
305Carol WoodwardfSub 7 IV 4740   2:06.6  172.6 
306ESPRIT Jarrett MooreMESPRIT VII 4731   2:06.8  171.6 
307Michelle Evans GAFGARAGEATHLETE IV 4714   2:07.3  169.7 
308FunkyrowerMGee Crew II 4706   2:07.5  168.9 
309Gur RotkopmSub 7 XIV 4706   2:07.5  168.9 
310laetitia delelisFFIRT I 4706   2:07.5  168.9 
311Thomas MillardMErg365 I 4703   2:07.6  168.6 
312Belinda TraceyFErgo Ergo Sum I 4700   2:07.7  168.2 
313Katie StonerFRed Line Rowers IV 4694   2:07.8  167.6 
314FREELANCE BG LANZONI SfCUS Bergamo I 4694   2:07.8  167.6 
315Lou A ElkingtonfTeam Oarsome III 4692   2:07.9  167.4 
316Simon_EngMAIRC II 4679   2:08.2  166.0 
317Alan ChampionmSub 7 XV 4678   2:08.3  165.9 
318Stephen GowerMRowPro Rowers II 4676   2:08.3  165.7 
319Lestrade Th.mFIRT III 4676   2:08.3  165.7 
320Samantha DoubtfireFSub 7 V 4668   2:08.5  164.8 
321Alan Strang (TS)m Once We Were Tribesports I 4656   2:08.9  163.6 
322MarjorieFSub 7 VI 4655   2:08.9  163.4 
323Fiona JamieFSub 7 VII 4646   2:09.1  162.5 
324Chris WhaleMForum Flyers V 4642   2:09.3  162.1 
325Keith BaxterMRed Line Rowers V 4611   2:10.1  158.9 
326Ian HodgeMSub 7 XVI 4609   2:10.2  158.6 
327Anna MielnikFFitness Matters II 4604   2:10.3  158.1 
328Andy FlewettMGee Crew II 4603   2:10.3  158.0 
329Rob B_UKMAIRC II 4602   2:10.4  157.9 
330Vicki BaldwinFSub 7 VIII 4597   2:10.5  157.4 
331Tony LorrimermGee Crew I 4591   2:10.7  156.8 
332Natalie TrebilcockFGee Crew I 4590   2:10.7  156.7 
333Evie EvisonFGee Crew II 4582   2:10.9  155.9 
334Paul GouldMFree Spirits IV 4576   2:11.1  155.3 
335Clare RainbowfSub 7 IX 4570   2:11.3  154.7 
336ClaireFMFFitness Matters III 4569   2:11.3  154.6 
337Hannah WrightfTruro Goats I 4562   2:11.5  153.8 
338Matt MorenMFitness Matters XII 4547   2:12.0  152.3 
339ESPRIT Victoria TaylorFESPRIT VI 4537   2:12.2  151.3 
340Mark RhineMRed Line Rowers V 4536   2:12.3  151.2 
341Tassana LandyfSub 7 X 4528   2:12.5  150.4 
342ESPRIT Alexandra KozerafESPRIT V 4528   2:12.5  150.4 
343John StockMForum Flyers V 4527   2:12.5  150.3 
344Marta SFFree Spirits I 4521   2:12.7  149.7 
345Rina DunnFRed Line Rowers V 4512   2:13.0  148.8 
346Bluebell31FSub 7 XI 4511   2:13.0  148.7 
347Dave Moores (FF)MForum Flyers V 4508   2:13.1  148.4 
348Al Nisbet SkiMSki Erg III 4502   2:13.3  147.9 
349Zoe OsborneFIsenhurst Rowers I 4502   2:13.3  147.9 
350ESPRIT Cristiane HorstFESPRIT VII 4501   2:13.3  147.8 
351Anna HoggFRed Line Rowers VI 4492   2:13.6  146.9 
352Barbara HFFree Spirits II 4483   2:13.8  146.0 
353Kevin PappinMGee Crew II 4478   2:14.0  145.5 
354Little HfTeam Oarsome IV 4476   2:14.0  145.3 
355Jessica JanzenFRowPro Rowers I 4470   2:14.2  144.7 
356Kelly SapsfordfMAD IV 4464   2:14.4  144.1 
357Arlene Wade (TO)fTeam Oarsome IV 4452   2:14.8  143.0 
358Debbie BarberFForum Flyers I 4436   2:15.3  141.4 
359Graham WoodleyMForum Flyers VI 4431   2:15.4  141.0 
360ObeseManRowingM#TokyRow I 4414   2:15.9  139.4 
361WazzaMSub 7 XVI 4411   2:16.0  139.1 
362Rachael Griffin FMFFitness Matters IV 4398   2:16.4  137.8 
363Sarah BenkoFPaddy Power I 4380   2:17.0  136.2 
364Annette WammenfRowPro Rowers II 4375   2:17.1  135.7 
365Rob DrurymEmpty the Tanks I 4371   2:17.3  135.3 
366Jackie HicksFIndependent I 4371   2:17.3  135.3 
367Annabel FearnleyfRowPro Rowers II 4357   2:17.7  134.0 
368Chloe SmithfFree Spirits III 4344   2:18.1  132.8 
369ALFergusonfRed Line Rowers V 4337   2:18.3  132.2 
370Peter TullettmFree Spirits IV 4300   2:19.5  128.8 
371Janice MarstonFMAD IV 4292   2:19.8  128.1 
372Ian NimmomGee Crew II 4284   2:20.1  127.4 
373alan wisniewskiMFree Spirits IV 4279   2:20.2  127.0 
374Philip PricemFree Spirits V 4276   2:20.3  126.7 
375Roger CruttendenMGee Crew III 4275   2:20.4  126.6 
376Steph JoyceFSub 7 XII 4269   2:20.5  126.1 
377clareburrellfFree Spirits IV 4265   2:20.7  125.7 
378Graham StorymTeam Oarsome IV 4251   2:21.1  124.5 
379Tom HaigMGee Crew III 4251   2:21.1  124.5 
380Polytechnique Mauricio LMFIRT IV 4226   2:22.0  122.3 
381Rita RisleyfGee Crew III 4225   2:22.0  122.2 
382Russel CampbellMRowPro Rowers II 4219   2:22.2  121.7 
383Janet LawtonFFree Spirits V 4206   2:22.7  120.6 
384ESPRIT Paula BattrickFESPRIT VIII 4198   2:22.9  119.9 
385Ange LCFFree Spirits V 4197   2:23.0  119.8 
386Candida Bf Once We Were Tribesports I 4177   2:23.6  118.1 
387Tokyo RoseF#TokyRow I 4174   2:23.7  117.8 
388Sarah Taylor (H)FSub 7 XIII 4158   2:24.3  116.5 
389Samantha Doubtfire SkiFSki Erg I 4130   2:25.3  114.1 
390Carol AtwoodFForum Flyers II 4118   2:25.7  113.2 
391Amon SUB7 SKI ERGfSki Erg II 4110   2:26.0  112.5 
392Brit HaugsengFFree Spirits V 4098   2:26.4  111.5 
393Tracy Watkins SkiFSki Erg II 4081   2:27.0  110.1 
394Susan Young LWTfSub 7 XIV 4056   2:27.9  108.1 
395Fleur BlanfordfIsenhurst Rowers II 4022   2:29.2  105.4 
396Carol AlkerfFitness Matters V 4014   2:29.5  104.8 
397Past ItMGee Crew III 3987   2:30.5  102.7 
398Damian BakerM Once We Were Tribesports I 3963   2:31.4  100.9 
399Petra HudsonFIsenhurst Rowers II 3946   2:32.1  99.6 
400Livia FfFitness Matters VI 3935   2:32.5  98.7 
401Liz GentFSki Erg III 3920   2:33.1  97.6 
402Diane Hunt RLRFRed Line Rowers VI 3893   2:34.1  95.6 
403Roger BurrellmFree Spirits V 3886   2:34.4  95.1 
404Polytechnique Andi SfFIRT II 3871   2:35.0  94.0 
405John Rupp skimSki Erg III 3854   2:35.7  92.8 
406Margaret Botterill (Mrs B)fForum Flyers III 3844   2:36.1  92.0 
407Kay HughesFTeam Oarsome V 3527   2:50.1  71.1 
408Shelagh AllenFSub 7 XV 3500   2:51.4  69.5 
409Abi Dolor S7fSub 7 XVI 3416   2:55.6  64.6 
410Polytechnique Dora RFFIRT III 3403   2:56.3  63.9 
411Polytechnique Augustin BmFIRT IV 3381   2:57.5  62.6 
412HjsSkiMSki Erg III 3321   3:00.7  59.4 
413Polytechnique Gökçe AFFIRT IV 3310   3:01.3  58.8 
414Gaynor JohnsonFRed Line Rowers VI 3287   3:02.5  57.5 
415Alfiski LittleskimSki Erg III 2766   3:36.9  34.3 
416Polytechnique Ching-Yu LmFIRT IV 2457   4:04.2  24.0 
417WrightymTruro Goats I 10  16:40:00.0  0.0 
418David GillibrandMSub 7 XVI 1  166:40:00.0  0.0 
1
63 pts
MAD I 5657.4m
Graham Benton (H)
Olli Zeidler (H)
Ertan (H)
Tim Male (L)
Justine Reston (F)
2
62 pts
GARAGEATHLETE I 5621m
Justin Farina (H)
Stephen Newberry (H)
Green_GA (H)
Yannick Herat (L)
Amie Macejkovic (F)
3
61 pts
ESPRIT I 5620.2m
ESPRIT - Oli Gray (H)
ESPRIT Jarek Olszowka (H)
ESPRIT Derek Peterson (H)
ESPRIT Noel Stoddart (L)
ESPRIT Katy Talbot (F)
4
60 pts
BW Rowing I 5590.2m
Ivan Saric (H)
Moritz BOCK (H)
Max Schramm (H)
Valentin Schätzlein (L)
LAWalker (F)
5
59 pts
MAD II 5562.4m
Sam Chinery (H)
Simon Jones (H)
j.d (H)
Mark Mitchell (L)
Charlotte Pigg (F)
6
58 pts
ESPRIT II 5535.2m
ESPRIT Dan Gorenkin (H)
ESPRIT Nick Blount (H)
ESPRIT Andy Tomlinson (H)
ESPRIT Craig Mumby (L)
ESPRIT Rochelle Quigley (F)
7
57 pts
Sub 7 I 5530.6m
Chandler S (H)
Marius TS (H)
Warren Matthews (H)
Bergur Jensen (L)
Anna Muehle (F)
8
56 pts
Team Oarsome I 5521.4m
James Saxton (H)
Thomas D Jackman (H)
PR_SAV (H)
Gregory Cook (L)
Janette Lowe (F)
9
55 pts
Fitness Matters I 5513.8m
Adam Harriman FM (H)
Tobias Stohr FM (H)
Andrew priston (H)
Simon Amery FM (L)
Malin Faraasen (F)
10
54 pts
GARAGEATHLETE II 5435.6m
Matt Zalewski GA (H)
SeanS GA (H)
Mark Rozewicz GA (H)
Nicolas Di Giugno GA (L)
Kia Taylor (F)
11
53 pts
Sub 7 II 5403.6m
Ian Wilde (H)
Mat Ward S7 (H)
Stewart Moss (H)
Steve Isaacson (L)
Sammie Stuart (F)
12
52 pts
MAD III 5379.4m
Roy Jones (H)
Pete Marston (H)
GrahamP (H)
Moritz Marchart (L)
Ellie Peebs (F)
13
51 pts
Red Line Rowers I 5376.8m
Michael Anderson (H)
Alan Agnew (H)
Philip Hardy (H)
Keith Darby (L)
Tracy Watkins RLR (F)
14
50 pts
Fitness Matters II 5351.4m
Allan Ridler (H)
Sam Blythe (H)
BlanksbyFM (H)
Chris Leonard (L)
Anna Mielnik (F)
15
49 pts
Sub 7 III 5343.8m
Alex Doidge (H)
Harry Wilkes (H)
Andy Reid Sub 7 (H)
Patrick Louazel (L)
Sarita Kristina Hansen (F)
16
48 pts
ESPRIT III 5334.2m
ESPRIT David Rackstraw (H)
ESPRIT Stuart Elvin (H)
ESPRIT Louis Kirchell (H)
ESPRIT Bill Schmidt (L)
ESPRIT Kerry Sharples (F)
17
47 pts
Sub 7 IV 5291m
Victor Padee (H)
Matty West (H)
Casey Clarke (H)
Adam Eshborn (L)
Carol Woodward (F)
18
46 pts
Fitness Matters III 5261.6m
Tim Garratt FM (H)
Jack Montgomery (H)
Barry Carew FM (H)
Marc Charman FM (L)
ClaireFM (F)
19
45 pts
RowPro Rowers I 5242.2m
Stewart Wyllie (H)
Damien Martin (H)
Amadee Pelgrim (H)
Bill Wakeley (L)
Jessica Janzen (F)
20
44 pts
Team Oarsome II 5221.6m
Edward Carpenter (H)
Peter Clowes (H)
Andy Burrows (H)
Philip Roesel (L)
Dawn Zalas (F)
21
43 pts
Paddy Power I 5220.2m
Andy Benko (H)
AAPaul Buchanan (H)
Ferdl (H)
Paul_Timmons (L)
Sarah Benko (F)
22
42 pts
Sub 7 V 5213.8m
Richard Cheeseman (H)
Matthew Parkinson S7 (H)
Matt Gill (H)
Dan Lynch (L)
Samantha Doubtfire (F)
23
41 pts
Red Line Rowers II 5213.4m
Rowland Hills (RLR) (H)
Paul Sands (H)
Bezza RLR (L)
Leif Hagen (L)
Shelagh tubby (F)
24
40 pts
ESPRIT IV 5187m
ESPRIT Julian Warrick (H)
ESPRIT PT Tummon (H)
ESPRIT Matt Foster (H)
ESPRIT Sarah Gibbs (L)
ESPRIT Rachel Harris (F)
25
39 pts
Sub 7 VI 5177.4m
Paul Peppard (H)
Rick Duffield (H)
Henning Schnell (H)
Rod.Chinn (L)
Marjorie (F)
26
38 pts
FIRT I 5176m
aurelienusv (H)
js.kls (L)
Looping (L)
patrice CORNUT (L)
laetitia delelis (F)
27
37 pts
Sub 7 VII 5147.8m
Joni Diack (H)
Chris Bell S7 (H)
Janos Suto S7 (H)
Glyn Lloyd (L)
Fiona Jamie (F)
28
36 pts
Forum Flyers I 5123.2m
macroth (H)
MartinB FF (H)
hjs (H)
Will Haskell (L)
Debbie Barber (F)
29
35 pts
Ergo Ergo Sum I 5110.2m
Stefan Hubner (H)
Nick Thomas (H)
Dingeman Wiertz (L)
Kamile Mat (F)
Belinda Tracey (F)
30
34 pts
Fitness Matters IV 5106.6m
Paul Nuttall (H)
Kevin James FM (H)
Ryan lecraw (H)
Andrew Philip (L)
Rachael Griffin FM (F)
31
33 pts
Free Spirits I 5099.8m
Tako Lootsma (H)
Felton Humble (H)
Steve Smith (H)
Claudius (L)
Marta S (F)
32
32 pts
Sub 7 VIII 5094m
Steven Richie (H)
Glynn Powell (H)
Craig douglass (H)
Derek boland (L)
Vicki Baldwin (F)
33
31 pts
Sub 7 IX 5079m
Matt Rawlinson (H)
Robert Jones (H)
Mike Pearce (MPx) (H)
Alfred Okello (L)
Clare Rainbow (F)
34
30 pts
Isenhurst Rowers I 5070.6m
Mark Griffin (H)
Keith Keaveney (H)
Mike Shillabeer (H)
Matt Ely (L)
Zoe Osborne (F)
35
29 pts
ESPRIT V 5061.2m
ESPRIT Jon Hardwick (H)
ESPRIT Alex Frazao (H)
ESPRIT Matt Luke (H)
ESPRIT Alexandra Kozera (L)
ESPRIT Charlotte Rooney (F)
36
28 pts
Team Oarsome III 5057.2m
Ade Peel (TO) (H)
Ash (H)
Dave Chmilowskyj (H)
Matt Newman (L)
Lou A Elkington (F)
37
27 pts
Sub 7 X 5033.6m
Russell Chewie (H)
Ed Compton (H)
Gary Lewis (H)
Nolan Thomas Messer (L)
Tassana Landy (F)
38
26 pts
Red Line Rowers III 5023.6m
Jorn Farmen (H)
Graham Hutchings (H)
Anton Richter-Visser (L)
Paul White (RLR) (L)
Val Craft (F)
39
25 pts
Fitness Matters V 4994.8m
Brian O Dubhchoin FM (H)
John Pritchard FM (H)
Bartosz D-ski FM (H)
Tony McKenna. (L)
Carol Alker (F)
40
24 pts
Independent I 4994.4m
James stapleton (H)
Dave Barber IND (H)
Ian Barnes (H)
Oranj (L)
Jackie Hicks (F)
41
23 pts
Free Spirits II 4982.4m
gregsmith01748 (H)
FSR Ralf Achenbach (H)
fkoene (H)
Ian Bee (L)
Barbara H (F)
42
22 pts
Sub 7 XI 4960m
Anthony Barbier (H)
Hal Appleyard01 (H)
David Lewis (H)
Nigel Brockton (L)
Bluebell31 (F)
43
21 pts
Forum Flyers II 4905m
Martin FF (H)
Nigel Farmer (H)
Lindsayh (H)
Terry FF (L)
Carol Atwood (F)
44
20 pts
Fitness Matters VI 4904m
Huw Beaty FM (H)
James Clarke (H)
Matthew Godwin FM (H)
Harry Hellam (L)
Livia F (F)
45
19 pts
Red Line Rowers IV 4885.6m
Mike Ashton (H)
GeorgeBinghamRLR (H)
Richard Milner (L)
meurice robinson RLR (L)
Katie Stoner (F)
46
18 pts
Ski Erg I 4873.2m
Blanksby ski (H)
Casey Clarke SkiErg (H)
James Thornton SkiErg (H)
js.klski (L)
Samantha Doubtfire Ski (F)
47
17 pts
Gee Crew I 4871.4m
Andy Parkes (H)
Andy Cole (H)
Peter Jones (H)
Tony Lorrimer (L)
Natalie Trebilcock (F)
48
16 pts
Free Spirits III 4867.6m
Liefcat (H)
MaxMacLaren1 (H)
Paul Johnson (L)
Jon P Taylor (L)
Chloe Smith (F)
49
15 pts
Sub 7 XII 4860.2m
Dave Gillibrand (H)
Geoff Boucher (H)
Andy Patience (H)
James Davis (L)
Steph Joyce (F)
50
14 pts
FIRT II 4802m
bensid71 (H)
Floret. J (H)
Jean-Pierre GORIN (L)
david FROC -AIP (L)
Polytechnique Andi S (F)
51
13 pts
Sub 7 XIII 4796.6m
Ray Len (H)
Karl Dieter (H)
Dominic Grierson (H)
Arkadiusz Kieliszek (L)
Sarah Taylor (H) (F)
52
12 pts
Sub 7 XIV 4718.4m
Ian Northcott (H)
Richard Cameron (H)
Richard Steventon (H)
Gur Rotkop (L)
Susan Young LWT (F)
53
11 pts
Team Oarsome IV 4644m
Larry Tait (H)
David Speed (H)
Graham Story (L)
Little H (L)
Arlene Wade (TO) (F)
54
10 pts
Once We Were Tribesports I 4599.4m
Paul Bryson (TS) (H)
StJohn Ford (H)
Damian Baker (H)
Alan Strang (TS) (L)
Candida B (F)
55
9 pts
Ski Erg II 4590m
Davidski Barberski (H)
macrothski (H)
Chewie Russell SkiErg (H)
Amon SUB7 SKI ERG (L)
Tracy Watkins Ski (F)
56
8 pts
Isenhurst Rowers II 4584.8m
Will Blanford (H)
Roger Tivey (H)
Gary Smith (L)
Fleur Blanford (F)
Petra Hudson (F)
57
7 pts
Red Line Rowers V 4551.2m
RLR_Andrew_Jones (H)
Keith Baxter (H)
Mark Rhine (H)
ALFerguson (L)
Rina Dunn (F)
58
6 pts
Sub 7 XV 4541.2m
Mike Pfirrman (H)
Eddie McSharry (H)
Eric Jones (H)
Alan Champion (L)
Shelagh Allen (F)
59
5 pts
Gee Crew II 4530.6m
Funkyrower (H)
Andy Flewett (H)
Kevin Pappin (H)
Ian Nimmo (L)
Evie Evison (F)
60
4 pts
FIRT III 4489m
steeve DANDREY (H)
Sylverado987 (H)
herve pruneau (L)
Lestrade Th. (L)
Polytechnique Dora R (F)
61
3 pts
Free Spirits IV 4449.4m
Paul Gould (H)
alan wisniewski (H)
David Plumb (L)
Peter Tullett (L)
clareburrell (F)
62
2 pts
Free Spirits V 4132.6m
Philip Price (L)
Roger Burrell (L)
Janet Lawton (F)
Ange LC (F)
Brit Haugseng (F)
63
1 pt
Ski Erg III 3672.6m
Al Nisbet Ski (H)
HjsSki (H)
John Rupp ski (L)
Alfiski Littleski (L)
Liz Gent (F)
64BW Rowing II5571.3m
Matthias Borghorst (H)
Clemens B (H)
Felix Pfeiffer (H)
 
65Cornish Gig Rowers IRC I5563m
Jamie Sanders (H)
Andrew King (H)
 
66TRAIN Manchester I5270.5m
Dean Harris (H)
LIAM PDB WALSH (L)
 
67GARAGEATHLETE III5260.7m
Kevin Doherty (H)
Andrew Van Wyk (H)
Henry Smith GA (H)
Lesley Wright GA (F)
68Fitness Matters VII5168m
Roger Rogne (H)
Pongi (H)
Roger Johansen FM (H)
 
69C2TweetCrew I5159m
Kay Bieri (H)
 
70BW Rowing III5152m
George S (H)
Gabriele Tarsia Incuria (H)
 
71Fitness Matters VIII5105m
Spencer Priestley FM (H)
Stephen Perkins FM (H)
FlorianO (H)
 
72Fitness Matters IX5051.6m
Ray Lowrie FM (H)
Tim Reid (H)
Marcus Schug FM (H)
 
73DLC Gidea Park I5044.5m
Jon Melson (H)
Adam Seymour (H)
P McNeil (H)
Mike Brownjohn (L)
74GARAGEATHLETE IV5009.5m
Justin Mcelwain GA (H)
Michelle Evans GA (F)
 
75ESPRIT VI5004m
ESPRIT Al Nisbet (H)
ESPRIT Dale Pickering (H)
ESPRIT Eddie Edwards (H)
ESPRIT Victoria Taylor (F)
76Fitness Matters X4965.3m
Sion Evans FM (H)
Mark Dickinson (H)
FM Bob Summons (H)
 
77Forum Flyers IV4949.3m
jacket (H)
andrewcrystal (H)
Steve Ockerby (H)
 
78Paddy Power II4922.5m
davidmarks (H)
Joe A Keating (L)
 
79Erg365 I4914.3m
M D MItchell (H)
lee robinson (H)
Thomas Millard (H)
 
80Independent II4911.6m
Marcus Sherwood (H)
Craig Hudson (H)
Robert Dyke (L)
 
81AIRC I4907.6m
Bjarne_DK (H)
AndersP_Swe (H)
Harry_Sco (H)
 
82Taff Attack I4821m
Steve Selwood (H)
 
83Fitness Matters XI4818m
James Lowe (H)
Robin Lancefield (H)
Cemlyn Jones (H)
 
84Empty the Tanks I4773.6m
Kevin Hillman (H)
Jonathan Turns ETT (H)
Rob Drury (L)
 
85Forum Flyers III4754.7m
Ivan Vukovic (H)
Allan Hallberg (H)
Frank Noorlander (H)
Margaret Botterill (Mrs B) (L)
86MAD IV4743.7m
Jon Goodall (H)
Kieran Cahill (L)
Kelly Sapsford (F)
Janice Marston (F)
87ESPRIT VII4714m
ESPRIT Paul Butterworth (H)
ESPRIT Jim Aaron (H)
ESPRIT Jarrett Moore (H)
ESPRIT Cristiane Horst (F)
88CUS Bergamo I4694m
FREELANCE BG LANZONI S (L)
 
89Fitness Matters XII4664.5m
Andy Barwell FM (H)
Matt Moren (H)
 
90AIRC II4640.5m
Simon_Eng (H)
Rob B_UK (H)
 
91Forum Flyers V4559m
Chris Whale (H)
John Stock (H)
Dave Moores (FF) (H)
 
92Forum Flyers VI4431m
Graham Woodley (H)
 
93RowPro Rowers II4406.7m
Stephen Gower (H)
Russel Campbell (H)
Annette Wammen (L)
Annabel Fearnley (F)
94#TokyRow I4294m
ObeseManRowing (H)
Tokyo Rose (F)
 
95ESPRIT VIII4198m
ESPRIT Paula Battrick (F)
 
96Gee Crew III4184.5m
Roger Cruttenden (H)
Tom Haig (H)
Past It (H)
Rita Risley (L)
97Red Line Rowers VI3890.6m
Anna Hogg (F)
Diane Hunt RLR (F)
Gaynor Johnson (F)
 
98Team Oarsome V3527m
Kay Hughes (F)
 
99FIRT IV3343.5m
Polytechnique Mauricio L (H)
Polytechnique Augustin B (L)
Polytechnique Ching-Yu L (L)
Polytechnique Gökçe A (F)
100Sub 7 XVI3109.2m
Ian Hodge (H)
Wazza (H)
David Gillibrand (H)
Abi Dolor S7 (L)
101Truro Goats I2286m
Wrighty (L)
Hannah Wright (F)
 

The Cross-Team Challenge is not supported or endorsed by Concept 2.
Site written by Daren Chandisingh. Please post any problems on the UK Concept 2 forum.

Valid XHTML 1.0 Transitional